sensor_id;sensor_type;location;lat;lon;timestamp;P1;durP1;ratioP1;P2;durP2;ratioP2
32365;SDS011;18837;46.832;16.838;2023-07-02T00:00:02;8.73;;;6.93;;
32365;SDS011;18837;46.832;16.838;2023-07-02T00:02:38;8.67;;;6.83;;
32365;SDS011;18837;46.832;16.838;2023-07-02T00:08:05;8.03;;;7.20;;
32365;SDS011;18837;46.832;16.838;2023-07-02T00:10:31;7.07;;;6.37;;
32365;SDS011;18837;46.832;16.838;2023-07-02T00:12:56;8.23;;;6.60;;
32365;SDS011;18837;46.832;16.838;2023-07-02T00:15:22;10.03;;;7.67;;
32365;SDS011;18837;46.832;16.838;2023-07-02T00:17:48;7.43;;;6.63;;
32365;SDS011;18837;46.832;16.838;2023-07-02T00:20:13;8.33;;;6.67;;
32365;SDS011;18837;46.832;16.838;2023-07-02T00:22:53;7.93;;;7.10;;
32365;SDS011;18837;46.832;16.838;2023-07-02T00:25:19;7.50;;;6.70;;
32365;SDS011;18837;46.832;16.838;2023-07-02T00:27:45;7.53;;;6.83;;
32365;SDS011;18837;46.832;16.838;2023-07-02T00:30:11;8.07;;;6.90;;
32365;SDS011;18837;46.832;16.838;2023-07-02T00:32:37;7.00;;;6.30;;
32365;SDS011;18837;46.832;16.838;2023-07-02T00:35:03;7.90;;;7.10;;
32365;SDS011;18837;46.832;16.838;2023-07-02T00:43:04;7.80;;;6.73;;
32365;SDS011;18837;46.832;16.838;2023-07-02T00:45:29;9.90;;;6.77;;
32365;SDS011;18837;46.832;16.838;2023-07-02T00:47:56;8.50;;;6.73;;
32365;SDS011;18837;46.832;16.838;2023-07-02T00:50:22;8.70;;;6.97;;
32365;SDS011;18837;46.832;16.838;2023-07-02T00:52:48;8.97;;;7.10;;
32365;SDS011;18837;46.832;16.838;2023-07-02T00:55:14;7.30;;;6.50;;
32365;SDS011;18837;46.832;16.838;2023-07-02T01:00:33;8.13;;;6.80;;
32365;SDS011;18837;46.832;16.838;2023-07-02T01:02:59;7.13;;;6.27;;
32365;SDS011;18837;46.832;16.838;2023-07-02T01:05:28;7.03;;;6.20;;
32365;SDS011;18837;46.832;16.838;2023-07-02T01:08:09;8.07;;;6.73;;
32365;SDS011;18837;46.832;16.838;2023-07-02T01:10:37;6.83;;;6.10;;
32365;SDS011;18837;46.832;16.838;2023-07-02T01:16:08;9.20;;;6.37;;
32365;SDS011;18837;46.832;16.838;2023-07-02T01:18:33;7.70;;;6.30;;
32365;SDS011;18837;46.832;16.838;2023-07-02T01:21:03;8.17;;;6.27;;
32365;SDS011;18837;46.832;16.838;2023-07-02T01:23:32;9.03;;;6.70;;
32365;SDS011;18837;46.832;16.838;2023-07-02T01:25:59;8.23;;;6.47;;
32365;SDS011;18837;46.832;16.838;2023-07-02T01:28:33;8.03;;;6.50;;
32365;SDS011;18837;46.832;16.838;2023-07-02T01:31:16;9.47;;;5.87;;
32365;SDS011;18837;46.832;16.838;2023-07-02T01:33:42;8.53;;;6.50;;
32365;SDS011;18837;46.832;16.838;2023-07-02T01:36:08;8.20;;;6.30;;
32365;SDS011;18837;46.832;16.838;2023-07-02T01:38:34;8.30;;;6.23;;
32365;SDS011;18837;46.832;16.838;2023-07-02T01:40:59;6.40;;;5.80;;
32365;SDS011;18837;46.832;16.838;2023-07-02T01:43:25;6.40;;;5.80;;
32365;SDS011;18837;46.832;16.838;2023-07-02T01:51:34;6.83;;;6.13;;
32365;SDS011;18837;46.832;16.838;2023-07-02T01:54:00;8.60;;;5.80;;
32365;SDS011;18837;46.832;16.838;2023-07-02T01:56:26;5.97;;;5.37;;
32365;SDS011;18837;46.832;16.838;2023-07-02T01:58:53;5.80;;;5.30;;
32365;SDS011;18837;46.832;16.838;2023-07-02T02:01:19;6.60;;;6.00;;
32365;SDS011;18837;46.832;16.838;2023-07-02T02:03:44;5.90;;;5.37;;
32365;SDS011;18837;46.832;16.838;2023-07-02T02:06:16;5.97;;;5.37;;
32365;SDS011;18837;46.832;16.838;2023-07-02T02:08:42;6.53;;;5.43;;
32365;SDS011;18837;46.832;16.838;2023-07-02T02:11:07;6.80;;;6.03;;
32365;SDS011;18837;46.832;16.838;2023-07-02T02:13:33;5.63;;;5.13;;
32365;SDS011;18837;46.832;16.838;2023-07-02T02:15:59;6.37;;;5.67;;
32365;SDS011;18837;46.832;16.838;2023-07-02T02:18:24;5.67;;;5.03;;
32365;SDS011;18837;46.832;16.838;2023-07-02T02:26:36;5.83;;;5.23;;
32365;SDS011;18837;46.832;16.838;2023-07-02T02:29:02;6.17;;;5.47;;
32365;SDS011;18837;46.832;16.838;2023-07-02T02:31:28;6.50;;;5.53;;
32365;SDS011;18837;46.832;16.838;2023-07-02T02:33:53;5.77;;;5.17;;
32365;SDS011;18837;46.832;16.838;2023-07-02T02:36:19;5.40;;;4.90;;
32365;SDS011;18837;46.832;16.838;2023-07-02T02:38:45;5.67;;;4.70;;
32365;SDS011;18837;46.832;16.838;2023-07-02T02:41:16;6.40;;;4.90;;
32365;SDS011;18837;46.832;16.838;2023-07-02T02:43:42;7.13;;;4.93;;
32365;SDS011;18837;46.832;16.838;2023-07-02T02:46:09;6.03;;;5.10;;
32365;SDS011;18837;46.832;16.838;2023-07-02T02:48:36;5.20;;;4.70;;
32365;SDS011;18837;46.832;16.838;2023-07-02T02:51:02;5.67;;;5.07;;
32365;SDS011;18837;46.832;16.838;2023-07-02T02:53:28;6.93;;;5.07;;
32365;SDS011;18837;46.832;16.838;2023-07-02T02:56:09;5.33;;;4.83;;
32365;SDS011;18837;46.832;16.838;2023-07-02T02:59:13;6.20;;;5.20;;
32365;SDS011;18837;46.832;16.838;2023-07-02T03:01:39;5.50;;;4.90;;
32365;SDS011;18837;46.832;16.838;2023-07-02T03:04:05;7.43;;;4.70;;
32365;SDS011;18837;46.832;16.838;2023-07-02T03:06:33;6.50;;;5.07;;
32365;SDS011;18837;46.832;16.838;2023-07-02T03:08:59;5.93;;;4.80;;
32365;SDS011;18837;46.832;16.838;2023-07-02T03:11:25;6.27;;;5.17;;
32365;SDS011;18837;46.832;16.838;2023-07-02T03:14:08;7.07;;;5.20;;
32365;SDS011;18837;46.832;16.838;2023-07-02T03:16:34;5.60;;;4.87;;
32365;SDS011;18837;46.832;16.838;2023-07-02T03:19:00;5.73;;;4.80;;
32365;SDS011;18837;46.832;16.838;2023-07-02T03:21:25;5.43;;;4.70;;
32365;SDS011;18837;46.832;16.838;2023-07-02T03:23:51;5.07;;;4.57;;
32365;SDS011;18837;46.832;16.838;2023-07-02T03:26:17;7.80;;;4.97;;
32365;SDS011;18837;46.832;16.838;2023-07-02T03:28:57;6.43;;;4.73;;
32365;SDS011;18837;46.832;16.838;2023-07-02T03:34:25;4.90;;;4.40;;
32365;SDS011;18837;46.832;16.838;2023-07-02T03:36:51;7.30;;;4.83;;
32365;SDS011;18837;46.832;16.838;2023-07-02T03:39:17;5.57;;;4.43;;
32365;SDS011;18837;46.832;16.838;2023-07-02T03:41:43;5.77;;;4.60;;
32365;SDS011;18837;46.832;16.838;2023-07-02T03:44:09;6.37;;;4.70;;
32365;SDS011;18837;46.832;16.838;2023-07-02T03:46:35;6.03;;;4.67;;
32365;SDS011;18837;46.832;16.838;2023-07-02T03:49:06;5.13;;;4.33;;
32365;SDS011;18837;46.832;16.838;2023-07-02T03:51:31;5.47;;;4.97;;
32365;SDS011;18837;46.832;16.838;2023-07-02T03:53:58;5.57;;;4.33;;
32365;SDS011;18837;46.832;16.838;2023-07-02T03:56:24;6.13;;;5.30;;
32365;SDS011;18837;46.832;16.838;2023-07-02T03:58:51;5.97;;;4.30;;
32365;SDS011;18837;46.832;16.838;2023-07-02T04:01:17;6.17;;;4.60;;
32365;SDS011;18837;46.832;16.838;2023-07-02T04:09:31;7.27;;;4.43;;
32365;SDS011;18837;46.832;16.838;2023-07-02T04:11:58;6.33;;;4.83;;
32365;SDS011;18837;46.832;16.838;2023-07-02T04:14:24;6.37;;;4.60;;
32365;SDS011;18837;46.832;16.838;2023-07-02T04:16:50;5.20;;;4.43;;
32365;SDS011;18837;46.832;16.838;2023-07-02T04:19:16;4.97;;;4.17;;
32365;SDS011;18837;46.832;16.838;2023-07-02T04:21:41;5.30;;;4.50;;
32365;SDS011;18837;46.832;16.838;2023-07-02T04:24:12;6.10;;;4.97;;
32365;SDS011;18837;46.832;16.838;2023-07-02T04:26:38;5.77;;;4.43;;
32365;SDS011;18837;46.832;16.838;2023-07-02T04:29:07;4.67;;;4.17;;
32365;SDS011;18837;46.832;16.838;2023-07-02T04:31:36;6.27;;;4.87;;
32365;SDS011;18837;46.832;16.838;2023-07-02T04:34:02;5.30;;;4.80;;
32365;SDS011;18837;46.832;16.838;2023-07-02T04:36:28;5.47;;;4.33;;
32365;SDS011;18837;46.832;16.838;2023-07-02T04:38:56;6.17;;;4.17;;
32365;SDS011;18837;46.832;16.838;2023-07-02T04:44:20;5.40;;;4.53;;
32365;SDS011;18837;46.832;16.838;2023-07-02T04:46:47;5.63;;;5.03;;
32365;SDS011;18837;46.832;16.838;2023-07-02T04:49:13;7.07;;;4.60;;
32365;SDS011;18837;46.832;16.838;2023-07-02T04:51:39;5.00;;;4.30;;
32365;SDS011;18837;46.832;16.838;2023-07-02T04:54:05;8.10;;;5.10;;
32365;SDS011;18837;46.832;16.838;2023-07-02T04:56:31;5.17;;;4.57;;
32365;SDS011;18837;46.832;16.838;2023-07-02T05:01:41;7.80;;;4.63;;
32365;SDS011;18837;46.832;16.838;2023-07-02T05:04:09;6.13;;;4.37;;
32365;SDS011;18837;46.832;16.838;2023-07-02T05:06:36;6.23;;;5.03;;
32365;SDS011;18837;46.832;16.838;2023-07-02T05:09:02;5.33;;;4.50;;
32365;SDS011;18837;46.832;16.838;2023-07-02T05:11:28;6.00;;;4.80;;
32365;SDS011;18837;46.832;16.838;2023-07-02T05:13:55;4.27;;;3.93;;
32365;SDS011;18837;46.832;16.838;2023-07-02T05:16:26;5.03;;;4.40;;
32365;SDS011;18837;46.832;16.838;2023-07-02T05:18:53;6.17;;;4.83;;
32365;SDS011;18837;46.832;16.838;2023-07-02T05:21:19;5.77;;;4.47;;
32365;SDS011;18837;46.832;16.838;2023-07-02T05:23:45;5.37;;;4.73;;
32365;SDS011;18837;46.832;16.838;2023-07-02T05:26:12;5.90;;;4.70;;
32365;SDS011;18837;46.832;16.838;2023-07-02T05:28:38;5.37;;;4.77;;
32365;SDS011;18837;46.832;16.838;2023-07-02T05:31:03;4.97;;;4.50;;
32365;SDS011;18837;46.832;16.838;2023-07-02T05:33:29;5.17;;;4.57;;
32365;SDS011;18837;46.832;16.838;2023-07-02T05:35:57;5.43;;;4.93;;
32365;SDS011;18837;46.832;16.838;2023-07-02T05:38:23;6.67;;;4.50;;
32365;SDS011;18837;46.832;16.838;2023-07-02T05:40:49;5.23;;;4.73;;
32365;SDS011;18837;46.832;16.838;2023-07-02T05:43:15;5.37;;;4.50;;
32365;SDS011;18837;46.832;16.838;2023-07-02T05:45:41;5.73;;;5.10;;
32365;SDS011;18837;46.832;16.838;2023-07-02T05:48:07;5.60;;;4.53;;
32365;SDS011;18837;46.832;16.838;2023-07-02T05:50:33;4.93;;;4.53;;
32365;SDS011;18837;46.832;16.838;2023-07-02T05:52:58;7.30;;;4.80;;
32365;SDS011;18837;46.832;16.838;2023-07-02T05:55:24;5.97;;;4.67;;
32365;SDS011;18837;46.832;16.838;2023-07-02T05:57:50;6.13;;;5.00;;
32365;SDS011;18837;46.832;16.838;2023-07-02T06:00:16;5.47;;;4.97;;
32365;SDS011;18837;46.832;16.838;2023-07-02T06:02:45;5.23;;;4.33;;
32365;SDS011;18837;46.832;16.838;2023-07-02T06:05:11;5.67;;;4.60;;
32365;SDS011;18837;46.832;16.838;2023-07-02T06:07:37;5.40;;;4.70;;
32365;SDS011;18837;46.832;16.838;2023-07-02T06:10:03;5.63;;;4.60;;
32365;SDS011;18837;46.832;16.838;2023-07-02T06:12:28;5.27;;;4.77;;
32365;SDS011;18837;46.832;16.838;2023-07-02T06:14:54;5.90;;;4.93;;
32365;SDS011;18837;46.832;16.838;2023-07-02T06:17:20;4.60;;;4.20;;
32365;SDS011;18837;46.832;16.838;2023-07-02T06:19:47;5.13;;;4.60;;
32365;SDS011;18837;46.832;16.838;2023-07-02T06:22:18;5.70;;;4.10;;
32365;SDS011;18837;46.832;16.838;2023-07-02T06:24:45;5.67;;;5.00;;
32365;SDS011;18837;46.832;16.838;2023-07-02T06:27:10;5.50;;;4.83;;
32365;SDS011;18837;46.832;16.838;2023-07-02T06:29:36;5.07;;;4.50;;
32365;SDS011;18837;46.832;16.838;2023-07-02T06:32:02;4.87;;;4.30;;
32365;SDS011;18837;46.832;16.838;2023-07-02T06:34:31;4.60;;;4.10;;
32365;SDS011;18837;46.832;16.838;2023-07-02T06:37:02;5.67;;;4.63;;
32365;SDS011;18837;46.832;16.838;2023-07-02T06:39:27;5.50;;;4.70;;
32365;SDS011;18837;46.832;16.838;2023-07-02T06:41:53;4.67;;;4.27;;
32365;SDS011;18837;46.832;16.838;2023-07-02T06:44:19;4.90;;;4.37;;
32365;SDS011;18837;46.832;16.838;2023-07-02T06:46:47;8.80;;;4.60;;
32365;SDS011;18837;46.832;16.838;2023-07-02T06:49:13;12.47;;;4.80;;
32365;SDS011;18837;46.832;16.838;2023-07-02T06:51:57;9.50;;;4.40;;
32365;SDS011;18837;46.832;16.838;2023-07-02T06:57:15;5.47;;;4.60;;
32365;SDS011;18837;46.832;16.838;2023-07-02T06:59:41;5.40;;;4.23;;
32365;SDS011;18837;46.832;16.838;2023-07-02T07:02:06;4.83;;;4.20;;
32365;SDS011;18837;46.832;16.838;2023-07-02T07:04:32;6.60;;;4.17;;
32365;SDS011;18837;46.832;16.838;2023-07-02T07:06:59;5.00;;;4.37;;
32365;SDS011;18837;46.832;16.838;2023-07-02T07:09:27;5.10;;;4.60;;
32365;SDS011;18837;46.832;16.838;2023-07-02T07:11:59;4.50;;;4.10;;
32365;SDS011;18837;46.832;16.838;2023-07-02T07:14:24;4.60;;;4.20;;
32365;SDS011;18837;46.832;16.838;2023-07-02T07:16:50;6.33;;;5.10;;
32365;SDS011;18837;46.832;16.838;2023-07-02T07:19:16;4.60;;;4.20;;
32365;SDS011;18837;46.832;16.838;2023-07-02T07:21:42;4.57;;;4.17;;
32365;SDS011;18837;46.832;16.838;2023-07-02T07:24:08;4.03;;;3.63;;
32365;SDS011;18837;46.832;16.838;2023-07-02T07:26:39;4.63;;;4.07;;
32365;SDS011;18837;46.832;16.838;2023-07-02T07:29:06;5.43;;;4.27;;
32365;SDS011;18837;46.832;16.838;2023-07-02T07:31:32;5.47;;;4.77;;
32365;SDS011;18837;46.832;16.838;2023-07-02T07:33:58;4.60;;;4.20;;
32365;SDS011;18837;46.832;16.838;2023-07-02T07:36:24;5.10;;;4.60;;
32365;SDS011;18837;46.832;16.838;2023-07-02T07:38:50;5.17;;;4.43;;
32365;SDS011;18837;46.832;16.838;2023-07-02T07:41:15;5.10;;;4.60;;
32365;SDS011;18837;46.832;16.838;2023-07-02T07:43:41;4.47;;;4.07;;
32365;SDS011;18837;46.832;16.838;2023-07-02T07:46:07;4.30;;;3.90;;
32365;SDS011;18837;46.832;16.838;2023-07-02T07:51:08;4.70;;;4.30;;
32365;SDS011;18837;46.832;16.838;2023-07-02T07:53:37;4.67;;;4.27;;
32365;SDS011;18837;46.832;16.838;2023-07-02T07:56:03;5.33;;;4.63;;
32365;SDS011;18837;46.832;16.838;2023-07-02T07:58:29;4.40;;;4.00;;
32365;SDS011;18837;46.832;16.838;2023-07-02T08:00:57;5.03;;;4.53;;
32365;SDS011;18837;46.832;16.838;2023-07-02T08:03:22;7.50;;;4.40;;
32365;SDS011;18837;46.832;16.838;2023-07-02T08:05:48;6.37;;;4.37;;
32365;SDS011;18837;46.832;16.838;2023-07-02T08:08:14;7.63;;;4.90;;
32365;SDS011;18837;46.832;16.838;2023-07-02T08:10:40;6.60;;;4.67;;
32365;SDS011;18837;46.832;16.838;2023-07-02T08:13:06;6.30;;;4.60;;
32365;SDS011;18837;46.832;16.838;2023-07-02T08:15:33;6.97;;;4.87;;
32365;SDS011;18837;46.832;16.838;2023-07-02T08:17:59;5.63;;;4.17;;
32365;SDS011;18837;46.832;16.838;2023-07-02T08:20:25;6.37;;;4.70;;
32365;SDS011;18837;46.832;16.838;2023-07-02T08:22:51;6.73;;;4.50;;
32365;SDS011;18837;46.832;16.838;2023-07-02T08:25:17;4.40;;;4.00;;
32365;SDS011;18837;46.832;16.838;2023-07-02T08:27:43;5.50;;;4.87;;
32365;SDS011;18837;46.832;16.838;2023-07-02T08:30:09;5.27;;;4.53;;
32365;SDS011;18837;46.832;16.838;2023-07-02T08:32:35;6.57;;;4.80;;
32365;SDS011;18837;46.832;16.838;2023-07-02T08:35:01;5.90;;;4.60;;
32365;SDS011;18837;46.832;16.838;2023-07-02T08:37:27;4.73;;;4.23;;
32365;SDS011;18837;46.832;16.838;2023-07-02T08:39:52;4.57;;;4.17;;
32365;SDS011;18837;46.832;16.838;2023-07-02T08:42:18;6.07;;;3.80;;
32365;SDS011;18837;46.832;16.838;2023-07-02T08:44:47;6.80;;;4.33;;
32365;SDS011;18837;46.832;16.838;2023-07-02T08:47:18;4.50;;;4.10;;
32365;SDS011;18837;46.832;16.838;2023-07-02T08:49:44;5.97;;;4.20;;
32365;SDS011;18837;46.832;16.838;2023-07-02T08:52:12;5.47;;;4.47;;
32365;SDS011;18837;46.832;16.838;2023-07-02T08:57:16;4.63;;;4.23;;
32365;SDS011;18837;46.832;16.838;2023-07-02T08:59:45;4.57;;;4.17;;
32365;SDS011;18837;46.832;16.838;2023-07-02T09:05:25;4.97;;;4.03;;
32365;SDS011;18837;46.832;16.838;2023-07-02T09:07:59;4.77;;;4.20;;
32365;SDS011;18837;46.832;16.838;2023-07-02T09:10:30;5.07;;;4.00;;
32365;SDS011;18837;46.832;16.838;2023-07-02T09:13:08;5.13;;;4.57;;
32365;SDS011;18837;46.832;16.838;2023-07-02T09:15:49;4.17;;;3.80;;
32365;SDS011;18837;46.832;16.838;2023-07-02T09:21:13;6.97;;;4.20;;
32365;SDS011;18837;46.832;16.838;2023-07-02T09:26:23;5.17;;;4.00;;
32365;SDS011;18837;46.832;16.838;2023-07-02T09:28:50;4.90;;;3.57;;
32365;SDS011;18837;46.832;16.838;2023-07-02T09:31:26;4.50;;;4.10;;
32365;SDS011;18837;46.832;16.838;2023-07-02T09:37:09;4.97;;;4.10;;
32365;SDS011;18837;46.832;16.838;2023-07-02T09:39:40;5.17;;;4.33;;
32365;SDS011;18837;46.832;16.838;2023-07-02T09:45:27;5.40;;;4.60;;
32365;SDS011;18837;46.832;16.838;2023-07-02T09:47:53;4.83;;;4.23;;
32365;SDS011;18837;46.832;16.838;2023-07-02T09:53:05;4.30;;;3.90;;
32365;SDS011;18837;46.832;16.838;2023-07-02T09:58:23;4.80;;;3.70;;
32365;SDS011;18837;46.832;16.838;2023-07-02T10:00:51;4.10;;;3.70;;
32365;SDS011;18837;46.832;16.838;2023-07-02T10:03:29;4.63;;;3.97;;
32365;SDS011;18837;46.832;16.838;2023-07-02T10:11:44;3.90;;;3.60;;
32365;SDS011;18837;46.832;16.838;2023-07-02T10:14:10;4.17;;;3.87;;
32365;SDS011;18837;46.832;16.838;2023-07-02T10:16:50;4.43;;;4.03;;
32365;SDS011;18837;46.832;16.838;2023-07-02T10:19:16;4.90;;;3.77;;
32365;SDS011;18837;46.832;16.838;2023-07-02T10:21:42;6.53;;;3.80;;
32365;SDS011;18837;46.832;16.838;2023-07-02T10:24:16;5.37;;;4.43;;
32365;SDS011;18837;46.832;16.838;2023-07-02T10:29:18;4.37;;;3.63;;
32365;SDS011;18837;46.832;16.838;2023-07-02T10:31:49;4.57;;;4.17;;
32365;SDS011;18837;46.832;16.838;2023-07-02T10:39:17;4.60;;;4.10;;
32365;SDS011;18837;46.832;16.838;2023-07-02T10:41:43;4.90;;;4.07;;
32365;SDS011;18837;46.832;16.838;2023-07-02T10:44:21;4.60;;;3.97;;
32365;SDS011;18837;46.832;16.838;2023-07-02T10:49:20;4.10;;;3.70;;
32365;SDS011;18837;46.832;16.838;2023-07-02T10:54:17;13.30;;;4.87;;
32365;SDS011;18837;46.832;16.838;2023-07-02T10:56:46;11.33;;;4.17;;
32365;SDS011;18837;46.832;16.838;2023-07-02T10:59:22;9.63;;;4.50;;
32365;SDS011;18837;46.832;16.838;2023-07-02T11:01:50;7.67;;;4.73;;
32365;SDS011;18837;46.832;16.838;2023-07-02T11:04:16;10.27;;;4.10;;
32365;SDS011;18837;46.832;16.838;2023-07-02T11:06:42;8.00;;;4.40;;
32365;SDS011;18837;46.832;16.838;2023-07-02T11:09:17;7.43;;;4.47;;
32365;SDS011;18837;46.832;16.838;2023-07-02T11:11:53;7.50;;;4.53;;
32365;SDS011;18837;46.832;16.838;2023-07-02T11:14:33;5.37;;;3.80;;
32365;SDS011;18837;46.832;16.838;2023-07-02T11:17:24;4.57;;;3.83;;
32365;SDS011;18837;46.832;16.838;2023-07-02T11:19:53;6.43;;;3.83;;
32365;SDS011;18837;46.832;16.838;2023-07-02T11:22:20;4.20;;;3.80;;
32365;SDS011;18837;46.832;16.838;2023-07-02T11:25:33;5.33;;;4.10;;
32365;SDS011;18837;46.832;16.838;2023-07-02T11:28:02;4.03;;;3.63;;
32365;SDS011;18837;46.832;16.838;2023-07-02T11:38:16;5.77;;;4.10;;
32365;SDS011;18837;46.832;16.838;2023-07-02T11:40:54;5.40;;;3.50;;
32365;SDS011;18837;46.832;16.838;2023-07-02T11:43:19;5.30;;;3.47;;
32365;SDS011;18837;46.832;16.838;2023-07-02T11:45:45;4.33;;;3.90;;
32365;SDS011;18837;46.832;16.838;2023-07-02T11:56:04;4.10;;;3.67;;
32365;SDS011;18837;46.832;16.838;2023-07-02T12:01:06;4.40;;;4.00;;
32365;SDS011;18837;46.832;16.838;2023-07-02T12:03:32;5.17;;;3.77;;
32365;SDS011;18837;46.832;16.838;2023-07-02T12:13:43;3.13;;;2.83;;
32365;SDS011;18837;46.832;16.838;2023-07-02T12:16:09;3.03;;;2.83;;
32365;SDS011;18837;46.832;16.838;2023-07-02T12:18:35;3.50;;;3.10;;
32365;SDS011;18837;46.832;16.838;2023-07-02T12:21:02;5.33;;;3.97;;
32365;SDS011;18837;46.832;16.838;2023-07-02T12:23:28;3.30;;;3.00;;
32365;SDS011;18837;46.832;16.838;2023-07-02T12:28:45;2.90;;;2.60;;
32365;SDS011;18837;46.832;16.838;2023-07-02T12:31:10;3.87;;;2.93;;
32365;SDS011;18837;46.832;16.838;2023-07-02T12:33:38;3.40;;;3.07;;
32365;SDS011;18837;46.832;16.838;2023-07-02T12:36:04;3.47;;;2.73;;
32365;SDS011;18837;46.832;16.838;2023-07-02T12:38:30;2.97;;;2.67;;
32365;SDS011;18837;46.832;16.838;2023-07-02T12:41:04;3.77;;;3.13;;
32365;SDS011;18837;46.832;16.838;2023-07-02T12:43:48;3.30;;;3.00;;
32365;SDS011;18837;46.832;16.838;2023-07-02T12:46:26;3.33;;;3.00;;
32365;SDS011;18837;46.832;16.838;2023-07-02T12:51:28;3.20;;;2.90;;
32365;SDS011;18837;46.832;16.838;2023-07-02T12:56:32;2.80;;;2.60;;
32365;SDS011;18837;46.832;16.838;2023-07-02T12:58:57;2.80;;;2.50;;
32365;SDS011;18837;46.832;16.838;2023-07-02T13:01:26;3.30;;;2.67;;
32365;SDS011;18837;46.832;16.838;2023-07-02T13:03:55;2.60;;;2.40;;
32365;SDS011;18837;46.832;16.838;2023-07-02T13:06:21;3.20;;;2.90;;
32365;SDS011;18837;46.832;16.838;2023-07-02T13:08:47;2.30;;;2.10;;
32365;SDS011;18837;46.832;16.838;2023-07-02T13:24:05;2.53;;;2.33;;
32365;SDS011;18837;46.832;16.838;2023-07-02T13:26:31;2.70;;;2.50;;
32365;SDS011;18837;46.832;16.838;2023-07-02T13:28:57;2.13;;;1.93;;
32365;SDS011;18837;46.832;16.838;2023-07-02T13:31:23;2.43;;;2.17;;
32365;SDS011;18837;46.832;16.838;2023-07-02T13:34:07;2.70;;;2.20;;
32365;SDS011;18837;46.832;16.838;2023-07-02T13:39:19;2.57;;;2.20;;
32365;SDS011;18837;46.832;16.838;2023-07-02T13:57:12;1.83;;;1.73;;
32365;SDS011;18837;46.832;16.838;2023-07-02T13:59:39;2.20;;;2.00;;
32365;SDS011;18837;46.832;16.838;2023-07-02T14:02:05;1.83;;;1.70;;
32365;SDS011;18837;46.832;16.838;2023-07-02T14:04:31;1.83;;;1.73;;
32365;SDS011;18837;46.832;16.838;2023-07-02T14:06:57;1.90;;;1.70;;
32365;SDS011;18837;46.832;16.838;2023-07-02T14:09:35;2.10;;;1.90;;
32365;SDS011;18837;46.832;16.838;2023-07-02T14:12:02;2.67;;;2.10;;
32365;SDS011;18837;46.832;16.838;2023-07-02T14:14:28;2.07;;;1.70;;
32365;SDS011;18837;46.832;16.838;2023-07-02T14:16:54;1.93;;;1.73;;
32365;SDS011;18837;46.832;16.838;2023-07-02T14:19:20;1.60;;;1.50;;
32365;SDS011;18837;46.832;16.838;2023-07-02T14:21:45;2.00;;;1.90;;
32365;SDS011;18837;46.832;16.838;2023-07-02T14:24:11;1.90;;;1.70;;
32365;SDS011;18837;46.832;16.838;2023-07-02T14:30:05;1.70;;;1.60;;
32365;SDS011;18837;46.832;16.838;2023-07-02T14:32:33;1.97;;;1.70;;
32365;SDS011;18837;46.832;16.838;2023-07-02T14:35:03;1.90;;;1.80;;
32365;SDS011;18837;46.832;16.838;2023-07-02T14:37:29;1.80;;;1.70;;
32365;SDS011;18837;46.832;16.838;2023-07-02T14:39:54;1.60;;;1.50;;
32365;SDS011;18837;46.832;16.838;2023-07-02T14:42:20;2.07;;;1.93;;
32365;SDS011;18837;46.832;16.838;2023-07-02T14:44:55;1.87;;;1.73;;
32365;SDS011;18837;46.832;16.838;2023-07-02T14:47:20;1.67;;;1.57;;
32365;SDS011;18837;46.832;16.838;2023-07-02T14:49:46;1.70;;;1.60;;
32365;SDS011;18837;46.832;16.838;2023-07-02T14:52:12;1.70;;;1.60;;
32365;SDS011;18837;46.832;16.838;2023-07-02T14:54:38;1.97;;;1.60;;
32365;SDS011;18837;46.832;16.838;2023-07-02T14:57:04;1.63;;;1.53;;
32365;SDS011;18837;46.832;16.838;2023-07-02T15:05:22;1.93;;;1.60;;
32365;SDS011;18837;46.832;16.838;2023-07-02T15:07:48;1.90;;;1.70;;
32365;SDS011;18837;46.832;16.838;2023-07-02T15:10:14;1.53;;;1.43;;
32365;SDS011;18837;46.832;16.838;2023-07-02T15:12:39;1.73;;;1.63;;
32365;SDS011;18837;46.832;16.838;2023-07-02T15:15:05;1.37;;;1.27;;
32365;SDS011;18837;46.832;16.838;2023-07-02T15:17:31;1.40;;;1.30;;
32365;SDS011;18837;46.832;16.838;2023-07-02T15:20:00;1.40;;;1.30;;
32365;SDS011;18837;46.832;16.838;2023-07-02T15:22:35;1.70;;;1.60;;
32365;SDS011;18837;46.832;16.838;2023-07-02T15:25:02;1.47;;;1.37;;
32365;SDS011;18837;46.832;16.838;2023-07-02T15:27:27;1.50;;;1.40;;
32365;SDS011;18837;46.832;16.838;2023-07-02T15:29:53;1.60;;;1.50;;
32365;SDS011;18837;46.832;16.838;2023-07-02T15:32:19;1.40;;;1.30;;
32365;SDS011;18837;46.832;16.838;2023-07-02T15:40:45;1.40;;;1.30;;
32365;SDS011;18837;46.832;16.838;2023-07-02T15:43:12;1.70;;;1.60;;
32365;SDS011;18837;46.832;16.838;2023-07-02T15:45:37;1.70;;;1.60;;
32365;SDS011;18837;46.832;16.838;2023-07-02T15:48:03;1.73;;;1.50;;
32365;SDS011;18837;46.832;16.838;2023-07-02T15:50:29;1.80;;;1.70;;
32365;SDS011;18837;46.832;16.838;2023-07-02T15:55:46;1.40;;;1.30;;
32365;SDS011;18837;46.832;16.838;2023-07-02T15:58:12;1.50;;;1.40;;
32365;SDS011;18837;46.832;16.838;2023-07-02T16:00:41;1.27;;;1.17;;
32365;SDS011;18837;46.832;16.838;2023-07-02T16:03:06;1.40;;;1.30;;
32365;SDS011;18837;46.832;16.838;2023-07-02T16:05:35;2.10;;;1.80;;
32365;SDS011;18837;46.832;16.838;2023-07-02T16:08:09;1.27;;;1.17;;
32365;SDS011;18837;46.832;16.838;2023-07-02T16:14:38;1.40;;;1.30;;
32365;SDS011;18837;46.832;16.838;2023-07-02T16:17:04;1.70;;;1.40;;
32365;SDS011;18837;46.832;16.838;2023-07-02T16:19:31;1.40;;;1.30;;
32365;SDS011;18837;46.832;16.838;2023-07-02T16:21:57;1.40;;;1.30;;
32365;SDS011;18837;46.832;16.838;2023-07-02T16:24:27;1.50;;;1.40;;
32365;SDS011;18837;46.832;16.838;2023-07-02T16:26:54;1.30;;;1.20;;
32365;SDS011;18837;46.832;16.838;2023-07-02T16:29:39;1.60;;;1.50;;
32365;SDS011;18837;46.832;16.838;2023-07-02T16:32:13;1.80;;;1.70;;
32365;SDS011;18837;46.832;16.838;2023-07-02T16:34:43;1.60;;;1.50;;
32365;SDS011;18837;46.832;16.838;2023-07-02T16:39:53;1.67;;;1.57;;
32365;SDS011;18837;46.832;16.838;2023-07-02T16:50:05;1.60;;;1.50;;
32365;SDS011;18837;46.832;16.838;2023-07-02T16:52:34;1.50;;;1.40;;
32365;SDS011;18837;46.832;16.838;2023-07-02T16:55:06;1.40;;;1.30;;
32365;SDS011;18837;46.832;16.838;2023-07-02T16:57:32;1.57;;;1.47;;
32365;SDS011;18837;46.832;16.838;2023-07-02T17:00:16;1.40;;;1.30;;
32365;SDS011;18837;46.832;16.838;2023-07-02T17:05:31;1.30;;;1.20;;
32365;SDS011;18837;46.832;16.838;2023-07-02T17:08:23;1.53;;;1.43;;
32365;SDS011;18837;46.832;16.838;2023-07-02T17:10:48;1.40;;;1.30;;
32365;SDS011;18837;46.832;16.838;2023-07-02T17:13:14;1.70;;;1.50;;
32365;SDS011;18837;46.832;16.838;2023-07-02T17:15:40;2.00;;;1.50;;
32365;SDS011;18837;46.832;16.838;2023-07-02T17:18:17;1.57;;;1.47;;
32365;SDS011;18837;46.832;16.838;2023-07-02T17:23:49;1.30;;;1.20;;
32365;SDS011;18837;46.832;16.838;2023-07-02T17:26:15;1.37;;;1.27;;
32365;SDS011;18837;46.832;16.838;2023-07-02T17:28:41;1.63;;;1.27;;
32365;SDS011;18837;46.832;16.838;2023-07-02T17:31:06;1.40;;;1.30;;
32365;SDS011;18837;46.832;16.838;2023-07-02T17:33:32;1.57;;;1.47;;
32365;SDS011;18837;46.832;16.838;2023-07-02T17:35:58;1.50;;;1.40;;
32365;SDS011;18837;46.832;16.838;2023-07-02T17:38:29;1.40;;;1.30;;
32365;SDS011;18837;46.832;16.838;2023-07-02T17:40:54;1.60;;;1.50;;
32365;SDS011;18837;46.832;16.838;2023-07-02T17:43:20;1.53;;;1.43;;
32365;SDS011;18837;46.832;16.838;2023-07-02T17:45:55;1.50;;;1.40;;
32365;SDS011;18837;46.832;16.838;2023-07-02T17:48:21;1.50;;;1.40;;